Time;durP1;ratioP1;P1;durP2;ratioP2;P2;SDS_P1;SDS_P2;PMS_P1;PMS_P2;Temp;Humidity;BMP_temperature;BMP_pressure;BME280_temperature;BME280_humidity;BME280_pressure;Samples;Min_cycle;Max_cycle;Signal;HPM_P1;HPM_P2
2024/03/09 00:00:19;;;;;;;32.33;21.57;;;7.00;99.90;;;;;;5036204;28;20559;-68
2024/03/09 00:02:55;;;;;;;35.53;22.60;;;7.00;99.90;;;;;;5034599;28;20873;-67
2024/03/09 00:05:24;;;;;;;35.10;23.63;;;7.00;99.90;;;;;;5036159;28;20763;-67
2024/03/09 00:07:52;;;;;;;31.07;22.03;;;6.90;99.90;;;;;;5033962;28;20432;-67
2024/03/09 00:10:18;;;;;;;36.40;22.63;;;6.90;99.90;;;;;;5033746;28;20472;-67
2024/03/09 00:12:47;;;;;;;34.93;22.37;;;6.80;99.90;;;;;;5035456;28;20499;-67
2024/03/09 00:15:15;;;;;;;33.20;21.30;;;6.80;99.90;;;;;;5035852;28;20434;-67
2024/03/09 00:17:46;;;;;;;32.53;22.03;;;6.80;99.90;;;;;;5033887;28;20425;-67
2024/03/09 00:20:15;;;;;;;31.97;21.57;;;6.90;99.90;;;;;;5035531;28;20431;-67
2024/03/09 00:22:43;;;;;;;35.37;22.40;;;6.80;99.90;;;;;;5034190;28;20842;-67
2024/03/09 00:25:10;;;;;;;35.63;23.97;;;6.80;99.90;;;;;;5035608;28;20426;-68
2024/03/09 00:27:38;;;;;;;33.93;23.00;;;6.80;99.90;;;;;;5034349;28;20435;-68
2024/03/09 00:30:10;;;;;;;32.83;21.80;;;6.70;99.90;;;;;;5036185;28;20435;-67
2024/03/09 00:32:37;;;;;;;31.83;21.97;;;6.80;99.90;;;;;;5034337;28;20435;-67
2024/03/09 00:35:04;;;;;;;32.00;22.20;;;6.80;99.90;;;;;;5035658;28;20958;-67
2024/03/09 00:37:31;;;;;;;33.40;21.40;;;6.80;99.90;;;;;;5032979;28;20519;-68
2024/03/09 00:39:58;;;;;;;31.37;21.23;;;6.80;99.90;;;;;;5035157;28;20424;-67
2024/03/09 00:42:25;;;;;;;32.30;23.60;;;6.80;99.90;;;;;;5034245;28;20468;-67
2024/03/09 00:44:51;;;;;;;32.00;22.60;;;6.80;99.90;;;;;;5034503;28;20981;-68
2024/03/09 00:47:17;;;;;;;31.70;21.50;;;6.80;99.90;;;;;;5034744;28;20445;-68
2024/03/09 00:49:43;;;;;;;33.47;21.83;;;6.70;99.90;;;;;;5033787;28;20951;-67
2024/03/09 00:52:10;;;;;;;34.90;21.90;;;6.70;99.90;;;;;;5034400;28;20456;-67
2024/03/09 00:54:37;;;;;;;30.17;21.23;;;6.70;99.90;;;;;;5033604;28;20752;-67
2024/03/09 00:57:03;;;;;;;31.13;20.80;;;6.70;99.90;;;;;;5035189;28;20433;-67
2024/03/09 00:59:30;;;;;;;33.60;22.23;;;6.70;99.90;;;;;;5034182;28;20457;-67
2024/03/09 01:01:57;;;;;;;31.60;21.40;;;6.70;99.90;;;;;;5035093;28;20522;-67
2024/03/09 01:04:26;;;;;;;34.37;23.70;;;6.70;99.90;;;;;;5034192;28;20440;-67
2024/03/09 01:06:54;;;;;;;35.60;22.73;;;6.70;99.90;;;;;;5033963;28;20527;-67
2024/03/09 01:09:20;;;;;;;31.10;21.07;;;6.70;99.90;;;;;;5034532;28;20452;-67
2024/03/09 01:11:48;;;;;;;32.10;22.70;;;6.70;99.90;;;;;;5034427;28;20459;-67
2024/03/09 01:14:14;;;;;;;34.67;21.20;;;6.70;99.90;;;;;;5034440;28;20946;-67
2024/03/09 01:16:40;;;;;;;31.97;23.53;;;6.60;99.90;;;;;;5033712;28;20533;-67
2024/03/09 01:19:06;;;;;;;33.83;22.73;;;6.60;99.90;;;;;;5032607;28;20524;-67
2024/03/09 01:21:33;;;;;;;29.30;21.27;;;6.60;99.90;;;;;;5033847;28;20263;-67
2024/03/09 01:24:04;;;;;;;34.37;21.57;;;6.50;99.90;;;;;;5034811;28;20637;-67
2024/03/09 01:26:30;;;;;;;34.53;21.93;;;6.40;99.90;;;;;;5033955;28;20572;-67
2024/03/09 01:28:56;;;;;;;33.73;20.77;;;6.50;99.90;;;;;;5033122;28;20466;-67
2024/03/09 01:31:27;;;;;;;33.37;22.00;;;6.50;99.90;;;;;;5034764;28;20498;-67
2024/03/09 01:33:57;;;;;;;33.77;22.03;;;6.40;99.90;;;;;;5033972;28;20472;-67
2024/03/09 01:36:24;;;;;;;34.33;22.87;;;6.40;99.90;;;;;;5034500;28;20962;-68
2024/03/09 01:38:50;;;;;;;31.70;22.00;;;6.40;99.90;;;;;;5033200;28;20436;-67
2024/03/09 01:41:15;;;;;;;34.20;21.57;;;6.40;99.90;;;;;;5034288;28;20472;-67
2024/03/09 01:43:42;;;;;;;30.17;20.57;;;6.40;99.90;;;;;;5032411;28;20205;-67
2024/03/09 01:46:10;;;;;;;29.17;20.20;;;6.40;99.90;;;;;;5034958;28;20189;-67
2024/03/09 01:48:40;;;;;;;34.77;22.33;;;6.40;99.90;;;;;;5031303;28;20468;-67
2024/03/09 01:51:07;;;;;;;30.97;20.80;;;6.40;99.90;;;;;;5033947;28;20448;-67
2024/03/09 01:53:35;;;;;;;32.50;21.53;;;6.30;99.90;;;;;;5032903;28;20481;-67
2024/03/09 01:56:04;;;;;;;27.47;20.30;;;6.30;99.90;;;;;;5033958;28;20421;-67
2024/03/09 01:58:31;;;;;;;34.40;20.87;;;6.30;99.90;;;;;;5033486;28;20544;-67
2024/03/09 02:01:04;;;;;;;30.23;21.10;;;6.30;99.90;;;;;;5033937;28;20436;-67
2024/03/09 02:03:30;;;;;;;26.27;18.77;;;6.30;99.90;;;;;;5033336;28;20432;-67
2024/03/09 02:05:56;;;;;;;26.63;19.30;;;6.30;99.90;;;;;;5033338;28;21016;-67
2024/03/09 02:08:23;;;;;;;31.50;20.90;;;6.20;99.90;;;;;;5033151;28;20436;-67
2024/03/09 02:10:49;;;;;;;32.30;20.83;;;6.30;99.90;;;;;;5033644;28;20794;-67
2024/03/09 02:13:15;;;;;;;29.93;19.63;;;6.20;99.90;;;;;;5033083;28;20428;-68
2024/03/09 02:15:49;;;;;;;28.50;20.13;;;6.20;99.90;;;;;;5033703;28;20193;-67
2024/03/09 02:18:20;;;;;;;28.93;20.33;;;6.10;99.90;;;;;;5033739;28;20435;-67
2024/03/09 02:20:50;;;;;;;27.90;19.87;;;6.10;99.90;;;;;;5033273;28;20545;-67
2024/03/09 02:23:19;;;;;;;32.23;19.30;;;6.00;99.90;;;;;;5033504;28;20480;-68
2024/03/09 02:25:46;;;;;;;29.10;19.17;;;6.00;99.90;;;;;;5032568;28;20464;-67
2024/03/09 02:28:12;;;;;;;30.47;20.47;;;6.00;99.90;;;;;;5033005;28;20431;-67
2024/03/09 02:30:38;;;;;;;30.90;19.80;;;5.90;99.90;;;;;;5033044;28;20841;-68
2024/03/09 02:33:08;;;;;;;30.77;19.17;;;5.80;99.90;;;;;;5034724;28;20424;-67
2024/03/09 02:35:33;;;;;;;29.40;20.20;;;5.80;99.90;;;;;;5032389;28;20182;-67
2024/03/09 02:37:59;;;;;;;24.80;17.97;;;5.70;99.90;;;;;;5033662;28;20498;-67
2024/03/09 02:40:25;;;;;;;26.83;18.67;;;5.70;99.90;;;;;;5030725;28;20289;-68
2024/03/09 02:43:04;;;;;;;26.03;17.70;;;5.70;99.90;;;;;;5032759;28;20593;-67
2024/03/09 02:45:30;;;;;;;29.70;18.07;;;5.60;99.90;;;;;;5032569;28;20182;-67
2024/03/09 02:47:56;;;;;;;29.43;19.07;;;5.60;99.90;;;;;;5032312;28;20965;-67
2024/03/09 02:50:26;;;;;;;23.20;16.53;;;5.60;99.90;;;;;;5030599;28;20178;-67
2024/03/09 02:52:53;;;;;;;26.90;17.90;;;5.50;99.90;;;;;;5032404;28;20518;-67
2024/03/09 02:55:18;;;;;;;24.30;17.20;;;5.50;99.90;;;;;;5033095;28;20433;-67
2024/03/09 02:57:46;;;;;;;27.27;18.60;;;5.50;99.90;;;;;;5033678;28;21213;-67
2024/03/09 03:00:13;;;;;;;26.30;17.47;;;5.50;99.90;;;;;;5033092;28;20786;-67
2024/03/09 03:05:24;;;;;;;28.17;18.10;;;5.50;99.90;;;;;;5032907;28;20424;-67
2024/03/09 03:07:53;;;;;;;24.27;18.10;;;5.50;99.90;;;;;;5033191;28;20452;-67
2024/03/09 03:10:19;;;;;;;27.53;17.47;;;5.40;99.90;;;;;;5032850;28;20425;-67
2024/03/09 03:12:47;;;;;;;27.47;17.93;;;5.40;99.90;;;;;;5032800;28;20424;-68
2024/03/09 03:15:13;;;;;;;27.07;16.70;;;5.40;99.90;;;;;;5032816;28;20190;-67
2024/03/09 03:17:39;;;;;;;28.03;18.70;;;5.40;99.90;;;;;;5032139;28;20424;-67
2024/03/09 03:20:06;;;;;;;26.90;17.80;;;5.40;99.90;;;;;;5029791;28;20232;-66
2024/03/09 03:22:32;;;;;;;28.97;18.10;;;5.40;99.90;;;;;;5030071;28;20876;-67
2024/03/09 03:24:58;;;;;;;23.27;16.00;;;5.40;99.90;;;;;;5034954;28;20452;-67
2024/03/09 03:27:24;;;;;;;24.30;16.30;;;5.40;99.90;;;;;;5031641;28;21141;-67
2024/03/09 03:29:51;;;;;;;22.00;15.97;;;5.40;99.90;;;;;;5036402;28;20189;-67
2024/03/09 03:32:17;;;;;;;24.03;17.27;;;5.40;99.90;;;;;;5034487;28;20441;-67
2024/03/09 03:34:43;;;;;;;24.93;17.10;;;5.40;99.90;;;;;;5033662;28;21120;-67
2024/03/09 03:37:12;;;;;;;28.93;18.97;;;5.40;99.90;;;;;;5036016;28;20467;-66
2024/03/09 03:39:38;;;;;;;27.20;17.77;;;5.30;99.90;;;;;;5032415;28;20470;-67
2024/03/09 03:42:04;;;;;;;28.37;18.93;;;5.40;99.90;;;;;;5035150;28;20586;-67
2024/03/09 03:44:34;;;;;;;26.40;19.03;;;5.40;99.90;;;;;;5035317;28;20547;-67
2024/03/09 03:47:00;;;;;;;25.90;19.00;;;5.40;99.90;;;;;;5035212;28;20443;-67
2024/03/09 03:49:27;;;;;;;29.27;18.67;;;5.40;99.90;;;;;;5035518;28;20983;-66
2024/03/09 03:51:55;;;;;;;27.90;17.47;;;5.40;99.90;;;;;;5033795;28;20233;-67
2024/03/09 03:54:22;;;;;;;30.70;18.00;;;5.40;99.90;;;;;;5035532;28;20437;-67
2024/03/09 03:56:48;;;;;;;28.17;17.43;;;5.40;99.90;;;;;;5031955;28;20451;-67
2024/03/09 03:59:14;;;;;;;23.40;16.20;;;5.40;99.90;;;;;;5034423;28;20437;-67
2024/03/09 04:01:39;;;;;;;24.93;16.87;;;5.50;99.90;;;;;;5034192;28;20474;-67
2024/03/09 04:04:06;;;;;;;25.10;15.93;;;5.50;99.90;;;;;;5033460;28;20194;-67
2024/03/09 04:06:33;;;;;;;22.53;15.60;;;5.60;99.90;;;;;;5034018;28;20177;-66
2024/03/09 04:08:59;;;;;;;22.33;16.90;;;5.60;99.90;;;;;;5032827;28;20452;-67
2024/03/09 04:11:32;;;;;;;27.23;16.40;;;5.70;99.90;;;;;;5031610;28;20437;-67
2024/03/09 04:13:58;;;;;;;21.27;14.70;;;5.70;99.90;;;;;;5035942;28;20201;-67
2024/03/09 04:16:24;;;;;;;20.83;14.60;;;5.70;99.90;;;;;;5034368;28;20515;-66
2024/03/09 04:18:49;;;;;;;29.07;15.57;;;5.80;99.90;;;;;;5035487;28;20582;-67
2024/03/09 04:21:18;;;;;;;21.73;14.73;;;5.80;99.90;;;;;;5033693;28;20271;-67
2024/03/09 04:23:43;;;;;;;23.80;16.20;;;5.80;99.90;;;;;;5034317;28;20214;-67
2024/03/09 04:26:11;;;;;;;20.63;15.20;;;5.90;99.90;;;;;;5035592;28;20579;-66
2024/03/09 04:28:37;;;;;;;22.50;14.37;;;5.90;99.90;;;;;;5032671;28;20432;-67
2024/03/09 04:31:06;;;;;;;20.07;14.80;;;5.90;99.90;;;;;;5034099;28;20435;-67
2024/03/09 04:33:33;;;;;;;20.77;13.73;;;5.90;99.90;;;;;;5034509;28;20507;-67
2024/03/09 04:35:59;;;;;;;20.20;14.00;;;5.90;99.90;;;;;;5029992;28;20569;-67
2024/03/09 04:38:29;;;;;;;20.53;14.13;;;5.90;99.90;;;;;;5032569;28;20440;-67
2024/03/09 04:40:55;;;;;;;20.13;13.63;;;5.90;99.90;;;;;;5034831;28;20936;-67
2024/03/09 04:43:21;;;;;;;20.40;14.20;;;6.00;99.90;;;;;;5034462;28;20479;-67
2024/03/09 04:45:50;;;;;;;19.97;13.83;;;6.10;99.90;;;;;;5034303;28;20865;-67
2024/03/09 04:48:16;;;;;;;20.23;14.00;;;6.10;99.90;;;;;;5031303;28;20289;-67
2024/03/09 04:50:46;;;;;;;19.40;13.33;;;6.10;99.90;;;;;;5034632;28;20880;-67
2024/03/09 04:53:12;;;;;;;21.00;14.50;;;6.10;99.90;;;;;;5032881;28;20437;-67
2024/03/09 04:55:38;;;;;;;22.57;16.20;;;6.10;99.90;;;;;;5029389;28;20503;-67
2024/03/09 04:58:22;;;;;;;19.90;14.57;;;6.10;99.90;;;;;;5033460;28;20204;-67
2024/03/09 05:00:48;;;;;;;23.30;15.27;;;6.10;99.90;;;;;;5034794;28;20487;-67
2024/03/09 05:03:13;;;;;;;20.87;15.67;;;6.10;99.90;;;;;;5034014;28;20480;-67
2024/03/09 05:05:40;;;;;;;21.63;14.87;;;6.10;99.90;;;;;;5034306;28;20182;-67
2024/03/09 05:08:06;;;;;;;19.87;13.97;;;6.10;99.90;;;;;;5033506;28;20197;-67
2024/03/09 05:10:32;;;;;;;19.50;14.10;;;6.10;99.90;;;;;;5033052;28;20421;-67
2024/03/09 05:12:58;;;;;;;19.00;14.30;;;6.00;99.90;;;;;;5035167;28;20428;-67
2024/03/09 05:15:31;;;;;;;20.20;13.00;;;6.00;99.90;;;;;;5032815;28;20200;-67
2024/03/09 05:18:00;;;;;;;19.83;13.30;;;6.00;99.90;;;;;;5034691;28;20190;-67
2024/03/09 05:20:27;;;;;;;16.73;13.13;;;6.00;99.90;;;;;;5033597;28;20421;-67
2024/03/09 05:22:58;;;;;;;19.70;13.70;;;5.90;99.90;;;;;;5034832;28;20480;-67
2024/03/09 05:25:24;;;;;;;18.83;12.70;;;5.90;99.90;;;;;;5033287;28;20432;-67
2024/03/09 05:27:51;;;;;;;18.60;13.03;;;5.90;99.90;;;;;;5034454;28;20501;-67
2024/03/09 05:30:19;;;;;;;18.00;12.60;;;5.90;99.90;;;;;;5033391;28;20190;-67
2024/03/09 05:33:06;;;;;;;20.20;14.13;;;5.90;99.90;;;;;;5033585;28;20957;-67
2024/03/09 05:35:34;;;;;;;19.40;13.67;;;5.90;99.90;;;;;;5033440;28;20425;-67
2024/03/09 05:38:00;;;;;;;20.13;13.50;;;5.80;99.90;;;;;;5032230;28;20526;-67
2024/03/09 05:40:29;;;;;;;21.73;15.40;;;5.80;99.90;;;;;;5032442;28;20428;-67
2024/03/09 05:42:56;;;;;;;22.90;14.60;;;5.80;99.90;;;;;;5033335;28;20465;-67
2024/03/09 05:45:22;;;;;;;26.20;16.23;;;5.80;99.90;;;;;;5032829;28;20437;-67
2024/03/09 05:47:54;;;;;;;25.90;16.47;;;5.80;99.90;;;;;;5033084;28;20445;-67
2024/03/09 05:50:21;;;;;;;19.90;14.50;;;5.80;99.90;;;;;;5032357;28;20433;-67
2024/03/09 05:52:48;;;;;;;18.20;14.13;;;5.70;99.90;;;;;;5033392;28;20776;-66
2024/03/09 05:55:16;;;;;;;23.30;14.70;;;5.70;99.90;;;;;;5031737;28;20906;-67
2024/03/09 05:57:43;;;;;;;18.97;13.43;;;5.70;99.90;;;;;;5033533;28;20428;-66
2024/03/09 06:00:10;;;;;;;20.23;13.20;;;5.60;99.90;;;;;;5033969;28;21545;-67
2024/03/09 06:02:39;;;;;;;22.10;14.17;;;5.60;99.90;;;;;;5032621;28;20475;-67
2024/03/09 06:05:07;;;;;;;20.13;13.50;;;5.60;99.90;;;;;;5033481;28;20519;-67
2024/03/09 06:07:37;;;;;;;21.33;14.13;;;5.60;99.90;;;;;;5032610;28;20460;-66
2024/03/09 06:10:07;;;;;;;16.20;12.70;;;5.70;99.90;;;;;;5031976;28;20773;-67
2024/03/09 06:12:34;;;;;;;17.83;13.27;;;5.70;99.90;;;;;;5032727;28;20487;-66
2024/03/09 06:14:59;;;;;;;18.80;14.43;;;5.70;99.90;;;;;;5033370;28;21236;-67
2024/03/09 06:17:25;;;;;;;21.00;14.00;;;5.70;99.90;;;;;;5032177;28;20452;-66
2024/03/09 06:19:51;;;;;;;19.30;13.67;;;5.70;99.90;;;;;;5033820;28;20224;-66
2024/03/09 06:22:18;;;;;;;21.87;13.70;;;5.80;99.90;;;;;;5031993;28;20209;-67
2024/03/09 06:24:43;;;;;;;20.90;13.83;;;5.80;99.90;;;;;;5033511;28;20185;-66
2024/03/09 06:27:09;;;;;;;18.87;13.60;;;5.80;99.90;;;;;;5030156;28;20433;-67
2024/03/09 06:29:37;;;;;;;18.47;13.10;;;5.80;99.90;;;;;;5032371;28;20197;-67
2024/03/09 06:32:05;;;;;;;17.53;11.97;;;5.90;99.90;;;;;;5033240;28;20467;-67
2024/03/09 06:34:31;;;;;;;17.60;11.87;;;5.90;99.90;;;;;;5031059;28;21096;-67
2024/03/09 06:36:57;;;;;;;21.80;14.20;;;6.10;99.90;;;;;;5033502;28;20437;-67
2024/03/09 06:39:25;;;;;;;22.90;13.50;;;6.00;99.90;;;;;;5030896;28;20824;-67
2024/03/09 06:41:52;;;;;;;21.30;14.53;;;6.10;99.90;;;;;;5031487;28;20232;-67
2024/03/09 06:44:18;;;;;;;24.13;15.23;;;6.00;99.90;;;;;;5031452;28;20433;-67
2024/03/09 06:46:49;;;;;;;24.00;15.00;;;6.00;99.90;;;;;;5033221;28;20424;-67
2024/03/09 06:49:14;;;;;;;24.57;15.20;;;6.10;99.90;;;;;;5032206;28;20412;-68
2024/03/09 06:51:40;;;;;;;20.40;15.00;;;6.10;99.90;;;;;;5033351;28;20436;-67
2024/03/09 06:54:06;;;;;;;25.80;15.47;;;6.00;99.90;;;;;;5033218;28;20624;-67
2024/03/09 06:56:33;;;;;;;20.40;14.40;;;6.10;99.90;;;;;;5032391;28;20644;-67
2024/03/09 06:58:58;;;;;;;20.40;15.03;;;6.10;99.90;;;;;;5034493;28;20185;-67
2024/03/09 07:01:29;;;;;;;21.20;14.33;;;6.10;99.90;;;;;;5035643;28;21293;-67
2024/03/09 07:04:00;;;;;;;19.87;14.27;;;6.20;99.90;;;;;;5036933;28;20189;-67
2024/03/09 07:06:26;;;;;;;22.70;13.37;;;6.20;99.90;;;;;;5036210;28;20431;-67
2024/03/09 07:08:52;;;;;;;20.63;13.87;;;6.20;99.90;;;;;;5037418;28;20962;-67
2024/03/09 07:11:18;;;;;;;19.13;12.13;;;6.30;99.90;;;;;;5036269;28;20186;-67
2024/03/09 07:13:43;;;;;;;23.77;14.10;;;6.30;99.90;;;;;;5037055;28;20748;-67
2024/03/09 07:16:09;;;;;;;22.70;16.40;;;6.40;99.90;;;;;;5036948;28;20197;-67
2024/03/09 07:18:36;;;;;;;25.93;17.87;;;6.40;99.90;;;;;;5035837;28;20190;-66
2024/03/09 07:21:05;;;;;;;26.90;18.00;;;6.50;99.90;;;;;;5036887;28;20191;-67
2024/03/09 07:23:31;;;;;;;25.97;18.00;;;6.50;99.90;;;;;;5036419;28;20474;-66
2024/03/09 07:25:57;;;;;;;26.00;18.27;;;6.60;99.90;;;;;;5037150;28;20891;-67
2024/03/09 07:28:22;;;;;;;23.23;16.70;;;6.60;99.90;;;;;;5035063;28;20460;-67
2024/03/09 07:30:48;;;;;;;23.30;15.53;;;6.60;99.90;;;;;;5036864;28;20189;-67
2024/03/09 07:33:14;;;;;;;21.10;15.40;;;6.60;99.90;;;;;;5032764;28;20182;-69
2024/03/09 07:35:39;;;;;;;20.40;15.00;;;6.70;99.90;;;;;;5035950;28;20206;-67
2024/03/09 07:38:05;;;;;;;21.93;14.07;;;6.60;99.90;;;;;;5034988;28;20196;-68
2024/03/09 07:40:36;;;;;;;21.10;14.93;;;6.50;99.90;;;;;;5037055;28;20228;-67
2024/03/09 07:43:02;;;;;;;19.90;14.33;;;6.50;99.90;;;;;;5034686;28;20216;-68
2024/03/09 07:45:28;;;;;;;21.50;13.50;;;6.50;99.90;;;;;;5035712;28;20424;-66
2024/03/09 07:47:54;;;;;;;22.37;15.33;;;6.50;99.90;;;;;;5034626;28;20206;-67
2024/03/09 07:50:23;;;;;;;20.00;14.47;;;6.60;99.90;;;;;;5035494;28;21109;-67
2024/03/09 07:52:53;;;;;;;22.37;15.43;;;6.60;99.90;;;;;;5036261;28;20440;-67
2024/03/09 07:55:20;;;;;;;22.80;14.90;;;6.70;99.90;;;;;;5035634;28;20845;-67
2024/03/09 07:57:47;;;;;;;21.67;14.80;;;6.70;99.90;;;;;;5035778;28;20425;-67
2024/03/09 08:00:19;;;;;;;22.63;14.17;;;6.80;99.90;;;;;;5032002;28;20433;-67
2024/03/09 08:02:48;;;;;;;18.57;13.90;;;6.90;99.90;;;;;;5033362;28;20473;-67
2024/03/09 08:05:19;;;;;;;17.27;13.40;;;7.00;99.90;;;;;;5033836;28;20441;-67
2024/03/09 08:07:49;;;;;;;18.77;12.50;;;7.00;99.90;;;;;;5035530;28;21310;-66
2024/03/09 08:10:20;;;;;;;14.47;12.00;;;7.10;99.90;;;;;;5034385;28;20429;-67
2024/03/09 08:12:47;;;;;;;18.23;12.90;;;7.20;99.90;;;;;;5035304;28;20481;-67
2024/03/09 08:15:14;;;;;;;17.10;12.50;;;7.20;99.90;;;;;;5035771;28;20465;-67
2024/03/09 08:17:41;;;;;;;18.33;13.17;;;7.30;99.90;;;;;;5035996;28;20433;-66
2024/03/09 08:20:08;;;;;;;16.47;12.63;;;7.30;99.90;;;;;;5035146;28;20473;-67
2024/03/09 08:22:38;;;;;;;19.87;13.60;;;7.40;99.90;;;;;;5035617;28;20548;-67
2024/03/09 08:25:06;;;;;;;19.60;12.23;;;7.30;99.90;;;;;;5035050;28;20835;-67
2024/03/09 08:27:34;;;;;;;18.07;12.77;;;7.30;99.90;;;;;;5035527;28;20517;-67
2024/03/09 08:30:03;;;;;;;17.90;12.73;;;7.40;99.90;;;;;;5035333;28;20438;-67
2024/03/09 08:32:29;;;;;;;16.80;12.50;;;7.50;99.90;;;;;;5030754;28;20429;-67
2024/03/09 08:34:55;;;;;;;17.20;12.47;;;7.70;99.90;;;;;;5033454;28;20429;-67
2024/03/09 08:37:21;;;;;;;19.67;13.53;;;7.80;99.90;;;;;;5033763;28;20482;-67
2024/03/09 08:39:46;;;;;;;16.87;12.27;;;8.00;99.90;;;;;;5035552;28;20648;-67
2024/03/09 08:42:12;;;;;;;16.50;12.17;;;8.20;99.90;;;;;;5034999;28;20210;-67
2024/03/09 08:44:39;;;;;;;18.07;13.03;;;8.20;99.90;;;;;;5035581;28;20186;-67
2024/03/09 08:47:05;;;;;;;15.33;11.50;;;8.20;99.90;;;;;;5033861;28;20676;-67
2024/03/09 08:49:31;;;;;;;20.13;12.50;;;8.40;99.90;;;;;;5034820;28;20506;-67
2024/03/09 08:51:57;;;;;;;17.10;13.00;;;8.40;99.90;;;;;;5034654;28;20428;-67
2024/03/09 08:54:24;;;;;;;17.47;11.97;;;8.60;99.90;;;;;;5035016;28;20516;-67
2024/03/09 08:56:55;;;;;;;18.33;12.73;;;8.70;99.90;;;;;;5035615;28;20428;-67
2024/03/09 08:59:22;;;;;;;16.60;13.23;;;8.90;99.90;;;;;;5035148;28;20421;-67
2024/03/09 09:01:48;;;;;;;18.03;12.83;;;9.10;99.90;;;;;;5031918;28;20487;-67
2024/03/09 09:04:15;;;;;;;16.30;12.77;;;9.20;99.90;;;;;;5033133;28;21001;-67
2024/03/09 09:06:40;;;;;;;18.07;14.13;;;9.40;99.90;;;;;;5031843;28;20443;-67
2024/03/09 09:09:16;;;;;;;15.67;12.00;;;9.50;99.90;;;;;;5032545;28;20794;-67
2024/03/09 09:11:43;;;;;;;15.47;11.97;;;9.70;99.90;;;;;;5031803;28;20814;-67
2024/03/09 09:14:09;;;;;;;14.60;11.40;;;9.70;99.90;;;;;;5034611;28;20501;-67
2024/03/09 09:16:34;;;;;;;18.17;13.10;;;9.80;99.90;;;;;;5033565;28;20432;-67
2024/03/09 09:19:02;;;;;;;16.70;12.57;;;10.00;99.90;;;;;;5032018;28;20776;-67
2024/03/09 09:21:27;;;;;;;17.67;11.30;;;10.10;99.90;;;;;;5031564;28;20193;-67
2024/03/09 09:23:53;;;;;;;18.07;12.90;;;10.20;99.90;;;;;;5029104;28;20433;-68
2024/03/09 09:26:19;;;;;;;15.33;12.27;;;10.40;99.90;;;;;;5021001;28;21074;-67
2024/03/09 09:28:44;;;;;;;14.97;12.00;;;10.50;99.90;;;;;;5028635;28;20201;-67
2024/03/09 09:31:11;;;;;;;14.90;11.83;;;10.70;99.90;;;;;;5030642;28;20738;-67
2024/03/09 09:33:38;;;;;;;15.10;12.97;;;10.80;99.90;;;;;;5032035;28;20769;-67
2024/03/09 09:36:04;;;;;;;15.93;12.13;;;11.00;99.90;;;;;;5033515;28;20433;-67
2024/03/09 09:38:31;;;;;;;15.87;12.53;;;11.10;99.90;;;;;;5034262;28;20424;-67
2024/03/09 09:40:58;;;;;;;17.50;12.33;;;11.20;99.90;;;;;;5033142;28;20515;-68
2024/03/09 09:43:28;;;;;;;13.97;11.83;;;11.40;99.90;;;;;;5034274;28;20492;-67
2024/03/09 09:45:57;;;;;;;16.93;12.50;;;11.50;99.90;;;;;;5033665;28;20460;-67
2024/03/09 09:48:24;;;;;;;16.30;12.90;;;11.70;99.90;;;;;;5033402;28;20455;-67
2024/03/09 09:50:50;;;;;;;15.53;11.13;;;11.80;99.90;;;;;;5034095;28;20432;-68
2024/03/09 09:53:19;;;;;;;16.30;12.40;;;12.00;99.90;;;;;;5021855;28;20473;-68
2024/03/09 09:55:46;;;;;;;19.63;11.27;;;12.10;99.90;;;;;;5034441;28;20429;-67
2024/03/09 09:58:13;;;;;;;15.43;12.50;;;12.20;99.90;;;;;;5033094;28;20437;-68
2024/03/09 10:00:40;;;;;;;16.57;11.93;;;12.30;99.90;;;;;;5032475;28;20469;-68
2024/03/09 10:03:06;;;;;;;15.77;12.03;;;12.40;99.90;;;;;;5031126;28;20468;-66
2024/03/09 10:05:31;;;;;;;15.40;11.10;;;12.60;99.90;;;;;;5013026;28;20962;-67
2024/03/09 10:07:59;;;;;;;13.80;11.90;;;12.60;99.90;;;;;;5032043;28;20885;-67
2024/03/09 10:10:30;;;;;;;14.83;11.17;;;12.80;99.90;;;;;;5033723;28;20178;-67
2024/03/09 10:13:15;;;;;;;14.80;11.50;;;12.90;99.90;;;;;;5033633;28;20437;-67
2024/03/09 10:15:47;;;;;;;17.00;11.37;;;13.00;99.90;;;;;;5034249;28;20428;-67
2024/03/09 10:18:15;;;;;;;16.33;11.20;;;13.20;99.90;;;;;;5029956;28;20440;-67
2024/03/09 10:20:41;;;;;;;14.10;11.13;;;13.40;99.80;;;;;;5030836;28;20432;-67
2024/03/09 10:23:08;;;;;;;13.97;11.33;;;13.50;99.80;;;;;;5028510;28;20471;-67
2024/03/09 10:25:38;;;;;;;16.97;12.00;;;13.50;99.60;;;;;;5027720;28;20181;-67
2024/03/09 10:28:10;;;;;;;16.97;12.13;;;13.70;99.00;;;;;;5031522;28;20432;-67
2024/03/09 10:30:40;;;;;;;12.60;10.17;;;13.80;99.30;;;;;;5032705;28;20764;-67
2024/03/09 10:33:13;;;;;;;12.77;10.90;;;14.00;99.30;;;;;;5034805;28;20953;-67
2024/03/09 10:35:46;;;;;;;12.90;11.20;;;14.10;99.20;;;;;;5037298;28;20951;-67
2024/03/09 10:38:15;;;;;;;11.63;10.13;;;14.00;98.60;;;;;;5031523;28;20447;-67
2024/03/09 10:40:41;;;;;;;16.00;11.43;;;14.20;99.50;;;;;;5035566;28;20432;-67
2024/03/09 10:43:13;;;;;;;14.90;12.37;;;14.50;98.90;;;;;;5036029;28;20501;-67
2024/03/09 10:45:41;;;;;;;14.23;10.43;;;14.70;98.40;;;;;;5035890;28;20922;-67
2024/03/09 10:48:09;;;;;;;13.77;10.40;;;14.80;97.90;;;;;;5036964;28;21168;-66
2024/03/09 10:50:43;;;;;;;13.80;9.43;;;15.00;97.90;;;;;;5036452;28;20435;-66
2024/03/09 10:53:09;;;;;;;12.47;10.20;;;15.10;97.60;;;;;;5035639;28;20834;-67
2024/03/09 10:56:18;;;;;;;13.70;10.10;;;15.10;96.90;;;;;;5036083;28;20421;-66
2024/03/09 10:58:45;;;;;;;12.03;10.07;;;15.20;96.60;;;;;;5025138;28;20201;-67
2024/03/09 11:01:17;;;;;;;11.20;8.83;;;15.20;96.20;;;;;;5036407;28;20420;-67
2024/03/09 11:03:49;;;;;;;11.30;8.33;;;15.20;96.30;;;;;;5036160;28;20442;-66
2024/03/09 11:06:17;;;;;;;11.50;8.80;;;15.20;96.30;;;;;;5035460;28;20432;-67
2024/03/09 11:08:49;;;;;;;10.60;8.30;;;15.30;96.40;;;;;;5035691;28;20425;-67
2024/03/09 11:11:20;;;;;;;9.40;8.20;;;15.30;95.80;;;;;;5031988;28;20964;-67
2024/03/09 11:13:50;;;;;;;10.70;7.70;;;15.30;95.60;;;;;;5028764;28;20445;-69
2024/03/09 11:16:20;;;;;;;8.70;7.33;;;15.30;95.40;;;;;;5034377;28;20426;-67
2024/03/09 11:18:50;;;;;;;9.23;7.33;;;15.40;94.70;;;;;;5033851;28;20440;-69
2024/03/09 11:21:32;;;;;;;12.07;9.10;;;15.40;95.30;;;;;;5035965;28;20854;-68
2024/03/09 11:24:07;;;;;;;13.47;9.07;;;15.40;95.30;;;;;;5034796;28;20472;-69
2024/03/09 11:26:38;;;;;;;12.80;8.97;;;15.50;94.90;;;;;;5035581;28;20432;-68
2024/03/09 11:29:05;;;;;;;10.30;7.70;;;15.60;95.40;;;;;;5035663;28;20882;-68
2024/03/09 11:31:30;;;;;;;13.10;11.47;;;15.60;94.80;;;;;;5035463;28;20428;-67
2024/03/09 11:34:07;;;;;;;13.67;10.00;;;15.60;95.60;;;;;;5034976;28;20444;-68
2024/03/09 11:36:52;;;;;;;10.97;8.53;;;15.70;95.80;;;;;;5035663;28;20488;-68
2024/03/09 11:39:28;;;;;;;14.10;11.20;;;15.80;96.50;;;;;;5019866;28;20475;-69
2024/03/09 11:41:57;;;;;;;15.43;12.40;;;16.00;95.90;;;;;;5036387;28;20456;-68
2024/03/09 11:44:29;;;;;;;7.90;6.63;;;16.00;96.70;;;;;;5035659;28;20460;-68
2024/03/09 11:46:55;;;;;;;7.17;5.90;;;16.00;94.80;;;;;;5033980;28;20477;-67
2024/03/09 11:49:24;;;;;;;7.07;6.37;;;16.00;94.60;;;;;;5036982;28;20436;-68
2024/03/09 11:51:51;;;;;;;7.43;5.87;;;16.00;94.00;;;;;;5036054;28;20570;-69
2024/03/09 11:54:18;;;;;;;5.83;5.23;;;16.00;94.30;;;;;;5036740;28;20469;-69
2024/03/09 11:56:44;;;;;;;6.93;5.40;;;16.00;94.00;;;;;;5035694;28;20197;-70
2024/03/09 11:59:13;;;;;;;6.57;5.87;;;16.00;93.90;;;;;;5036426;28;20428;-69
2024/03/09 12:01:39;;;;;;;7.53;5.50;;;16.00;94.00;;;;;;5035938;28;20260;-69
2024/03/09 12:04:06;;;;;;;6.10;5.50;;;16.00;94.10;;;;;;5036229;28;20425;-69
2024/03/09 12:06:32;;;;;;;13.30;6.00;;;16.00;94.20;;;;;;5036087;28;20428;-69
2024/03/09 12:08:59;;;;;;;8.00;6.17;;;16.10;94.70;;;;;;5034777;28;20832;-69
2024/03/09 12:11:31;;;;;;;9.13;7.10;;;16.10;93.80;;;;;;5034677;28;20523;-68
2024/03/09 12:13:57;;;;;;;7.00;6.10;;;16.10;93.10;;;;;;5035972;28;20429;-70
2024/03/09 12:16:26;;;;;;;7.47;6.07;;;16.10;93.30;;;;;;5036454;28;20428;-69
2024/03/09 12:18:54;;;;;;;6.67;5.70;;;16.10;93.70;;;;;;5035901;28;20784;-69
2024/03/09 12:21:22;;;;;;;6.63;5.93;;;16.10;93.90;;;;;;5035274;28;20823;-70
2024/03/09 12:23:49;;;;;;;7.10;6.30;;;16.10;94.00;;;;;;5035598;28;20516;-69
2024/03/09 12:26:15;;;;;;;7.90;6.80;;;16.20;93.60;;;;;;5035198;28;20433;-69
2024/03/09 12:28:45;;;;;;;9.10;8.07;;;16.30;93.60;;;;;;5035490;28;20428;-70
2024/03/09 12:31:13;;;;;;;7.93;7.10;;;16.30;94.00;;;;;;5031029;28;20921;-69
2024/03/09 12:33:40;;;;;;;7.67;6.10;;;16.30;93.60;;;;;;5035824;28;20468;-70
2024/03/09 12:36:13;;;;;;;6.80;5.17;;;16.30;93.10;;;;;;5035627;28;20589;-70
2024/03/09 12:38:41;;;;;;;5.87;4.93;;;16.40;93.10;;;;;;5034570;28;20428;-68
2024/03/09 12:41:28;;;;;;;5.20;4.67;;;16.30;92.60;;;;;;5036225;28;20444;-70